Time;durP1;ratioP1;P1;durP2;ratioP2;P2;SDS_P1;SDS_P2;PMS_P1;PMS_P2;Temp;Humidity;BMP_temperature;BMP_pressure;BME280_temperature;BME280_humidity;BME280_pressure;Samples;Min_cycle;Max_cycle;Signal;HPM_P1;HPM_P2
2023/09/16 00:01:30;;;;;;;2.63;1.65;;;18.50;99.90;;;;;;5010711;28;20204;-72
2023/09/16 00:03:58;;;;;;;1.88;1.70;;;18.50;99.90;;;;;;5013886;28;20207;-70
2023/09/16 00:06:26;;;;;;;1.67;1.52;;;18.50;99.90;;;;;;5014675;28;20201;-71
2023/09/16 00:08:54;;;;;;;1.20;1.10;;;18.50;99.90;;;;;;5015697;28;20215;-71
2023/09/16 00:11:23;;;;;;;1.75;1.40;;;18.50;99.90;;;;;;5014185;28;20212;-70
2023/09/16 00:13:51;;;;;;;1.80;1.33;;;18.70;99.90;;;;;;5016100;28;20591;-71
2023/09/16 00:16:20;;;;;;;3.42;1.80;;;18.60;99.90;;;;;;5012254;28;20217;-70
2023/09/16 00:18:48;;;;;;;1.90;1.73;;;18.60;99.90;;;;;;5011619;28;20213;-71
2023/09/16 00:21:17;;;;;;;1.60;1.38;;;18.60;99.90;;;;;;5016375;28;20217;-71
2023/09/16 00:23:45;;;;;;;1.70;1.60;;;18.50;99.90;;;;;;5012912;28;20209;-71
2023/09/16 00:26:15;;;;;;;1.60;1.50;;;18.50;99.90;;;;;;5019541;28;20214;-70
2023/09/16 00:28:43;;;;;;;1.70;1.60;;;18.60;99.90;;;;;;5007724;28;20620;-71
2023/09/16 00:31:11;;;;;;;1.50;1.40;;;18.50;99.90;;;;;;5012864;28;20220;-72
2023/09/16 00:33:40;;;;;;;1.30;1.20;;;18.40;99.90;;;;;;5009351;28;20213;-71
2023/09/16 00:36:08;;;;;;;1.48;1.38;;;18.50;99.90;;;;;;5011711;28;20201;-71
2023/09/16 00:38:36;;;;;;;1.33;1.15;;;18.60;99.90;;;;;;5012196;28;20221;-70
2023/09/16 00:41:04;;;;;;;1.17;1.08;;;18.60;99.90;;;;;;5015453;28;20618;-70
2023/09/16 00:43:32;;;;;;;1.50;1.40;;;18.60;99.90;;;;;;5012899;28;20868;-70
2023/09/16 00:46:01;;;;;;;1.52;1.38;;;18.70;99.90;;;;;;5011724;28;20206;-70
2023/09/16 00:48:29;;;;;;;1.10;1.00;;;18.70;99.90;;;;;;5011796;28;20232;-70
2023/09/16 00:50:58;;;;;;;1.70;1.60;;;18.70;99.90;;;;;;5011604;28;20232;-70
2023/09/16 00:53:27;;;;;;;1.60;1.50;;;18.70;99.90;;;;;;5011352;28;20206;-71
2023/09/16 00:55:55;;;;;;;2.00;1.55;;;18.60;99.90;;;;;;5015507;28;20240;-71
2023/09/16 00:58:23;;;;;;;1.92;1.75;;;18.70;99.90;;;;;;5014847;28;20295;-72
2023/09/16 01:00:52;;;;;;;1.90;1.50;;;18.60;99.90;;;;;;5012329;28;20205;-72
2023/09/16 01:03:20;;;;;;;1.55;1.45;;;18.60;99.90;;;;;;5014153;28;20201;-71
2023/09/16 01:05:49;;;;;;;1.88;1.33;;;18.70;99.90;;;;;;5011817;28;20240;-72
2023/09/16 01:08:18;;;;;;;1.60;1.50;;;18.90;99.90;;;;;;5012427;28;20673;-72
2023/09/16 01:10:46;;;;;;;1.17;1.08;;;19.00;99.90;;;;;;5012801;28;20209;-72
2023/09/16 01:13:15;;;;;;;3.90;1.50;;;18.90;99.90;;;;;;5012174;28;20208;-70
2023/09/16 01:15:53;;;;;;;1.48;1.35;;;18.80;99.90;;;;;;5017782;28;20221;-73
2023/09/16 01:18:25;;;;;;;1.73;1.63;;;18.80;99.90;;;;;;5012269;28;20233;-71
2023/09/16 01:20:56;;;;;;;2.72;1.95;;;18.70;99.90;;;;;;5012721;28;20213;-73
2023/09/16 01:23:26;;;;;;;3.75;1.42;;;18.40;99.90;;;;;;5012297;28;20213;-71
2023/09/16 01:25:55;;;;;;;1.35;1.25;;;18.20;99.90;;;;;;5012473;28;20232;-71
2023/09/16 01:28:25;;;;;;;1.70;1.60;;;18.10;99.90;;;;;;5012121;28;20727;-72
2023/09/16 01:30:56;;;;;;;1.70;1.60;;;18.10;99.90;;;;;;5015532;28;20220;-71
2023/09/16 01:33:30;;;;;;;2.53;1.90;;;18.00;99.90;;;;;;5011893;28;20232;-72
2023/09/16 01:36:04;;;;;;;1.23;1.13;;;18.10;99.90;;;;;;5012216;28;20221;-71
2023/09/16 01:38:33;;;;;;;1.75;1.60;;;18.20;99.90;;;;;;5012704;28;20225;-71
2023/09/16 01:41:05;;;;;;;1.25;1.15;;;18.30;99.90;;;;;;5012163;28;20209;-70
2023/09/16 01:43:33;;;;;;;3.42;1.30;;;18.40;99.90;;;;;;5004119;28;20304;-72
2023/09/16 01:46:01;;;;;;;1.95;1.25;;;18.40;99.90;;;;;;5012290;28;20679;-71
2023/09/16 01:48:29;;;;;;;1.75;1.60;;;18.30;99.90;;;;;;5011628;28;20707;-72
2023/09/16 01:51:17;;;;;;;1.35;1.25;;;18.20;99.90;;;;;;5012198;28;20298;-71
2023/09/16 01:53:45;;;;;;;1.60;1.42;;;18.20;99.90;;;;;;5012130;28;20210;-72
2023/09/16 01:56:14;;;;;;;1.50;1.40;;;18.00;99.90;;;;;;5011682;28;20235;-74
2023/09/16 01:58:42;;;;;;;1.33;1.23;;;18.00;99.90;;;;;;5011877;28;20243;-71
2023/09/16 02:01:11;;;;;;;1.38;1.27;;;17.90;99.90;;;;;;5018849;28;20615;-71
2023/09/16 02:03:39;;;;;;;1.30;1.15;;;18.00;99.90;;;;;;5010935;28;20229;-71
2023/09/16 02:06:07;;;;;;;1.65;1.30;;;18.40;99.90;;;;;;5008412;28;20285;-72
2023/09/16 02:08:35;;;;;;;1.50;1.40;;;18.50;99.90;;;;;;5010521;28;20237;-71
2023/09/16 02:11:04;;;;;;;1.10;1.00;;;18.70;99.90;;;;;;5013275;28;20214;-72
2023/09/16 02:13:35;;;;;;;2.70;1.25;;;18.60;99.90;;;;;;5010924;28;20214;-71
2023/09/16 02:16:03;;;;;;;1.23;1.13;;;18.50;99.90;;;;;;5013145;28;20349;-70
2023/09/16 02:18:32;;;;;;;1.52;1.20;;;18.30;99.90;;;;;;5014157;28;20615;-71
2023/09/16 02:20:59;;;;;;;1.30;1.20;;;18.30;99.90;;;;;;5011856;28;20201;-71
2023/09/16 02:23:27;;;;;;;1.40;1.27;;;18.40;99.90;;;;;;5013864;28;20707;-71
2023/09/16 02:26:00;;;;;;;1.50;1.40;;;18.50;99.90;;;;;;5009706;28;20284;-70
2023/09/16 02:28:28;;;;;;;1.40;1.27;;;18.60;99.90;;;;;;5013218;28;20232;-71
2023/09/16 02:30:57;;;;;;;1.63;1.17;;;18.60;99.90;;;;;;5012064;28;20201;-71
2023/09/16 02:33:25;;;;;;;1.30;1.20;;;18.70;99.90;;;;;;5011565;28;20215;-72
2023/09/16 02:35:53;;;;;;;1.25;1.13;;;18.70;99.90;;;;;;5012383;28;20228;-71
2023/09/16 02:38:21;;;;;;;1.63;1.10;;;18.70;99.90;;;;;;5010666;28;20260;-71
2023/09/16 02:40:49;;;;;;;1.38;1.27;;;18.60;99.90;;;;;;5010951;28;20201;-71
2023/09/16 02:43:17;;;;;;;1.48;1.38;;;18.80;99.90;;;;;;5011678;28;20268;-71
2023/09/16 02:45:45;;;;;;;1.23;1.10;;;18.90;99.90;;;;;;5012292;28;20197;-70
2023/09/16 02:48:17;;;;;;;2.20;1.40;;;18.90;99.90;;;;;;5009668;28;20220;-69
2023/09/16 02:50:47;;;;;;;1.10;1.00;;;19.00;99.90;;;;;;5012602;28;20213;-71
2023/09/16 02:53:17;;;;;;;1.20;1.10;;;19.10;99.90;;;;;;5010313;28;20691;-71
2023/09/16 02:55:45;;;;;;;2.08;1.40;;;19.30;99.90;;;;;;5005782;28;20240;-71
2023/09/16 02:58:13;;;;;;;1.02;0.90;;;19.30;99.90;;;;;;5011599;28;20236;-70
2023/09/16 03:00:44;;;;;;;1.27;0.90;;;19.20;99.90;;;;;;5009602;28;20213;-70
2023/09/16 03:03:13;;;;;;;1.08;0.98;;;19.40;99.90;;;;;;5013394;28;20669;-72
2023/09/16 03:05:45;;;;;;;1.50;1.35;;;19.20;99.90;;;;;;5016023;28;20216;-70
2023/09/16 03:08:13;;;;;;;2.17;1.00;;;19.30;99.90;;;;;;5009454;28;20232;-71
2023/09/16 03:10:40;;;;;;;1.02;0.93;;;19.30;99.90;;;;;;5000153;28;20219;-69
2023/09/16 03:13:08;;;;;;;1.40;1.30;;;19.30;99.90;;;;;;5010777;28;20244;-69
2023/09/16 03:15:36;;;;;;;1.52;1.42;;;19.40;99.90;;;;;;5017131;28;20300;-69
2023/09/16 03:18:05;;;;;;;1.30;1.20;;;19.30;99.90;;;;;;5011316;28;20228;-70
2023/09/16 03:20:37;;;;;;;1.25;1.08;;;19.10;99.90;;;;;;5009378;28;20220;-71
2023/09/16 03:23:05;;;;;;;1.40;1.20;;;19.00;99.90;;;;;;5010839;28;20209;-69
2023/09/16 03:25:33;;;;;;;1.48;1.20;;;18.90;99.90;;;;;;5009538;28;20680;-71
2023/09/16 03:28:01;;;;;;;1.55;1.45;;;18.70;99.90;;;;;;5009967;28;20220;-70
2023/09/16 03:30:30;;;;;;;1.30;1.20;;;18.70;99.90;;;;;;5017473;28;20202;-70
2023/09/16 03:32:57;;;;;;;1.17;1.08;;;18.80;99.90;;;;;;5014403;28;20723;-71
2023/09/16 03:35:27;;;;;;;1.35;1.25;;;18.60;99.90;;;;;;5019137;28;20204;-71
2023/09/16 03:38:00;;;;;;;1.20;1.10;;;18.40;99.90;;;;;;5014232;28;20252;-74
2023/09/16 03:40:28;;;;;;;1.55;1.08;;;18.20;99.90;;;;;;5014112;28;20208;-71
2023/09/16 03:42:56;;;;;;;1.23;1.13;;;18.20;99.90;;;;;;5014409;28;20675;-71
2023/09/16 03:45:24;;;;;;;3.08;1.02;;;18.50;99.90;;;;;;5013700;28;20248;-71
2023/09/16 03:47:57;;;;;;;1.30;1.20;;;18.60;99.90;;;;;;5014386;28;20703;-71
2023/09/16 03:50:25;;;;;;;1.60;1.50;;;18.70;99.90;;;;;;5013970;28;20674;-71
2023/09/16 03:52:53;;;;;;;1.58;1.48;;;18.60;99.90;;;;;;5014298;28;20217;-71
2023/09/16 03:55:22;;;;;;;1.63;1.52;;;18.60;99.90;;;;;;5013090;28;20796;-69
2023/09/16 03:57:50;;;;;;;1.30;1.20;;;18.90;99.90;;;;;;5013264;28;20317;-71
2023/09/16 04:00:19;;;;;;;1.50;1.40;;;19.00;99.90;;;;;;5013798;28;20207;-70
2023/09/16 04:02:47;;;;;;;2.00;1.83;;;19.00;99.90;;;;;;5009170;28;20205;-71
2023/09/16 04:05:15;;;;;;;1.20;1.10;;;18.90;99.90;;;;;;5017273;28;20205;-70
2023/09/16 04:07:43;;;;;;;1.80;1.58;;;19.10;99.90;;;;;;5057546;22;20239;-69
2023/09/16 04:10:11;;;;;;;1.40;1.30;;;19.30;99.90;;;;;;5060108;28;20208;-69
2023/09/16 04:12:40;;;;;;;1.20;1.10;;;19.30;99.90;;;;;;5059228;28;20207;-69
2023/09/16 04:15:09;;;;;;;1.63;1.27;;;19.20;99.90;;;;;;5056666;28;20200;-69
2023/09/16 04:17:37;;;;;;;1.52;1.42;;;19.10;99.90;;;;;;5057246;28;20698;-69
2023/09/16 04:20:06;;;;;;;1.58;1.30;;;19.10;99.90;;;;;;5042946;28;20204;-70
2023/09/16 04:22:34;;;;;;;1.50;1.20;;;18.90;99.90;;;;;;5047188;28;20204;-68
2023/09/16 04:25:02;;;;;;;3.55;1.15;;;18.80;99.90;;;;;;5038583;28;20208;-69
2023/09/16 04:27:30;;;;;;;1.45;1.17;;;19.00;99.90;;;;;;5042718;28;20220;-69
2023/09/16 04:30:00;;;;;;;1.13;1.02;;;19.00;99.90;;;;;;5037644;28;20211;-69
2023/09/16 04:32:28;;;;;;;1.25;1.15;;;19.00;99.90;;;;;;5044135;28;20219;-69
2023/09/16 04:34:58;;;;;;;2.25;1.50;;;19.00;99.90;;;;;;5039960;28;20199;-69
2023/09/16 04:37:26;;;;;;;1.40;1.30;;;18.90;99.90;;;;;;5039902;28;20571;-69
2023/09/16 04:39:54;;;;;;;1.25;1.15;;;18.80;99.90;;;;;;5043276;28;20203;-69
2023/09/16 04:42:28;;;;;;;1.48;1.30;;;18.70;99.90;;;;;;5049348;28;20208;-69
2023/09/16 04:44:58;;;;;;;1.70;1.60;;;18.60;99.90;;;;;;5044025;28;20219;-69
2023/09/16 04:47:28;;;;;;;1.05;0.95;;;18.30;99.90;;;;;;5037691;28;20223;-69
2023/09/16 04:49:56;;;;;;;1.48;1.38;;;17.90;99.90;;;;;;5037242;28;20222;-68
2023/09/16 04:52:27;;;;;;;8.63;2.55;;;17.80;99.90;;;;;;5043504;28;20215;-70
2023/09/16 04:54:55;;;;;;;1.60;1.50;;;17.90;99.90;;;;;;5036656;28;20288;-69
2023/09/16 04:57:24;;;;;;;1.55;1.42;;;17.90;99.90;;;;;;5045991;28;20946;-69
2023/09/16 04:59:52;;;;;;;1.60;1.48;;;18.00;99.90;;;;;;5035334;28;20290;-68
2023/09/16 05:02:20;;;;;;;1.35;1.20;;;18.20;99.90;;;;;;5039063;28;20203;-69
2023/09/16 05:04:49;;;;;;;1.40;1.30;;;18.40;99.90;;;;;;5043810;28;20218;-68
2023/09/16 05:07:17;;;;;;;1.77;1.45;;;18.30;99.90;;;;;;5042656;28;20265;-68
2023/09/16 05:09:45;;;;;;;2.08;1.77;;;18.00;99.90;;;;;;5034533;28;20211;-69
2023/09/16 05:12:13;;;;;;;1.48;1.35;;;18.00;99.90;;;;;;5043356;28;20290;-69
2023/09/16 05:14:41;;;;;;;1.23;1.13;;;18.00;99.90;;;;;;5043555;28;20212;-68
2023/09/16 05:17:09;;;;;;;1.50;1.40;;;17.90;99.90;;;;;;5052374;28;20234;-70
2023/09/16 05:19:38;;;;;;;1.60;1.50;;;17.70;99.90;;;;;;5035032;28;20749;-70
2023/09/16 05:22:07;;;;;;;1.35;1.25;;;17.50;99.90;;;;;;5040097;28;20200;-69
2023/09/16 05:24:35;;;;;;;3.35;1.75;;;17.30;99.90;;;;;;5046209;28;20246;-69
2023/09/16 05:27:04;;;;;;;1.92;1.75;;;17.10;99.90;;;;;;5039862;28;20196;-70
2023/09/16 05:29:32;;;;;;;3.22;1.65;;;17.00;99.90;;;;;;5039672;28;20883;-70
2023/09/16 05:32:01;;;;;;;1.48;1.38;;;17.00;99.90;;;;;;5044464;28;20603;-69
2023/09/16 05:34:29;;;;;;;1.60;1.25;;;16.90;99.90;;;;;;5046638;28;20211;-69
2023/09/16 05:36:57;;;;;;;2.28;1.80;;;16.90;99.90;;;;;;5043878;28;20228;-69
2023/09/16 05:39:26;;;;;;;2.22;2.03;;;16.90;99.90;;;;;;5040092;28;20211;-69
2023/09/16 05:41:54;;;;;;;1.63;1.25;;;16.90;99.90;;;;;;5041606;28;20683;-69
2023/09/16 05:44:22;;;;;;;1.83;1.67;;;17.00;99.90;;;;;;5040546;28;20230;-69
2023/09/16 05:46:50;;;;;;;1.35;1.25;;;17.10;99.90;;;;;;5037477;28;22152;-70
2023/09/16 05:49:19;;;;;;;1.55;1.45;;;17.10;99.90;;;;;;5041258;28;20634;-69
2023/09/16 05:51:48;;;;;;;1.70;1.58;;;17.10;99.90;;;;;;5041267;28;20543;-69
2023/09/16 05:54:18;;;;;;;1.88;1.70;;;17.10;99.90;;;;;;5040217;28;20589;-69
2023/09/16 05:56:49;;;;;;;2.28;1.80;;;17.10;99.90;;;;;;5037367;28;20230;-69
2023/09/16 05:59:17;;;;;;;1.92;1.80;;;17.00;99.90;;;;;;5039391;28;20865;-71
2023/09/16 06:01:45;;;;;;;1.75;1.45;;;17.20;99.90;;;;;;5036972;28;21023;-69
2023/09/16 06:04:13;;;;;;;1.98;1.83;;;17.20;99.90;;;;;;5042282;28;20222;-70
2023/09/16 06:06:41;;;;;;;2.05;1.50;;;17.30;99.90;;;;;;5053362;28;20226;-69
2023/09/16 06:09:10;;;;;;;2.38;2.17;;;17.30;99.90;;;;;;5035838;28;20239;-70
2023/09/16 06:11:38;;;;;;;2.00;1.50;;;17.40;99.90;;;;;;5043953;28;20670;-70
2023/09/16 06:14:08;;;;;;;1.90;1.80;;;17.50;99.90;;;;;;5045352;28;20261;-69
2023/09/16 06:16:36;;;;;;;2.17;1.60;;;17.50;99.90;;;;;;5040042;28;20241;-68
2023/09/16 06:19:05;;;;;;;2.35;1.33;;;17.60;99.90;;;;;;5039072;28;20228;-70
2023/09/16 06:21:33;;;;;;;2.45;1.52;;;17.60;99.90;;;;;;5046275;28;21015;-69
2023/09/16 06:24:02;;;;;;;1.55;1.45;;;17.80;99.90;;;;;;5046546;28;20576;-69
2023/09/16 06:26:30;;;;;;;2.05;1.90;;;17.90;99.90;;;;;;5042688;28;20290;-69
2023/09/16 06:28:59;;;;;;;2.35;2.08;;;17.80;99.90;;;;;;5042773;28;20226;-71
2023/09/16 06:31:28;;;;;;;1.58;1.48;;;17.90;99.90;;;;;;5037572;28;20223;-69
2023/09/16 06:33:56;;;;;;;1.60;1.50;;;17.90;99.90;;;;;;5048545;28;20290;-69
2023/09/16 06:36:24;;;;;;;1.90;1.60;;;17.90;99.90;;;;;;5052768;28;20234;-69
2023/09/16 06:38:52;;;;;;;1.75;1.65;;;17.90;99.90;;;;;;5039742;28;20231;-70
2023/09/16 06:41:21;;;;;;;1.65;1.55;;;17.90;99.90;;;;;;5042452;28;20228;-69
2023/09/16 06:43:49;;;;;;;2.03;1.90;;;18.00;99.90;;;;;;5045124;28;20215;-69
2023/09/16 06:46:17;;;;;;;2.22;2.00;;;18.20;99.90;;;;;;5038509;28;20212;-69
2023/09/16 06:48:48;;;;;;;1.70;1.60;;;18.20;99.90;;;;;;5042948;28;20230;-69
2023/09/16 06:51:16;;;;;;;1.95;1.85;;;18.20;99.90;;;;;;5044703;28;20211;-68
2023/09/16 06:53:44;;;;;;;2.13;1.95;;;18.10;99.90;;;;;;5042741;28;20211;-70
2023/09/16 06:56:12;;;;;;;1.73;1.63;;;18.20;99.90;;;;;;5043086;28;20212;-70
2023/09/16 06:58:40;;;;;;;2.10;1.83;;;18.30;99.90;;;;;;5037706;28;20259;-69
2023/09/16 07:01:09;;;;;;;1.90;1.80;;;18.30;99.90;;;;;;5036583;28;20204;-69
2023/09/16 07:03:37;;;;;;;1.70;1.60;;;18.40;99.90;;;;;;5036106;28;20209;-69
2023/09/16 07:06:07;;;;;;;2.65;2.38;;;18.50;99.90;;;;;;5040825;28;20291;-70
2023/09/16 07:08:35;;;;;;;2.22;2.03;;;18.50;99.90;;;;;;5035998;28;20247;-70
2023/09/16 07:11:03;;;;;;;2.03;1.65;;;18.60;99.90;;;;;;5039675;28;20580;-69
2023/09/16 07:13:31;;;;;;;2.40;2.05;;;18.70;99.90;;;;;;5040490;28;20702;-70
2023/09/16 07:15:59;;;;;;;1.52;1.42;;;18.70;99.90;;;;;;5040409;28;20207;-69
2023/09/16 07:18:27;;;;;;;1.70;1.60;;;18.70;99.90;;;;;;5045299;28;20346;-68
2023/09/16 07:20:55;;;;;;;2.72;2.10;;;18.80;99.90;;;;;;5039622;28;20219;-69
2023/09/16 07:23:25;;;;;;;3.15;2.15;;;18.90;99.90;;;;;;5039261;28;20223;-69
2023/09/16 07:25:55;;;;;;;3.33;1.73;;;19.00;99.90;;;;;;5039813;28;20780;-69
2023/09/16 07:28:23;;;;;;;1.92;1.83;;;19.00;99.90;;;;;;5045457;28;20222;-69
2023/09/16 07:30:51;;;;;;;9.48;6.07;;;19.10;99.90;;;;;;5036360;28;20226;-69
2023/09/16 07:33:19;;;;;;;2.55;2.35;;;19.20;99.90;;;;;;5035355;28;20210;-70
2023/09/16 07:35:49;;;;;;;2.40;2.00;;;19.30;99.90;;;;;;5044702;28;20307;-66
2023/09/16 07:38:17;;;;;;;3.28;2.40;;;19.40;99.90;;;;;;5050048;28;20622;-66
2023/09/16 07:40:46;;;;;;;2.00;1.77;;;19.50;99.90;;;;;;5036070;28;20823;-66
2023/09/16 07:43:16;;;;;;;2.30;2.10;;;19.60;99.90;;;;;;5043468;28;20200;-67
2023/09/16 07:45:44;;;;;;;2.13;1.70;;;19.60;99.90;;;;;;5043233;28;20211;-66
2023/09/16 07:48:14;;;;;;;1.92;1.83;;;19.70;99.90;;;;;;5043056;28;20224;-67
2023/09/16 07:50:42;;;;;;;3.83;2.53;;;19.90;99.90;;;;;;5033896;28;20218;-69
2023/09/16 07:53:10;;;;;;;2.72;1.55;;;20.00;99.90;;;;;;5036502;28;20223;-68
2023/09/16 07:55:39;;;;;;;1.92;1.80;;;20.10;99.90;;;;;;5036178;28;20587;-67
2023/09/16 07:58:09;;;;;;;1.55;1.45;;;20.10;99.90;;;;;;5038338;28;20677;-67
2023/09/16 08:00:37;;;;;;;1.70;1.60;;;20.20;99.90;;;;;;5039423;28;20216;-68
2023/09/16 08:03:06;;;;;;;3.22;1.70;;;20.40;99.90;;;;;;5037260;28;20200;-68
2023/09/16 08:05:34;;;;;;;1.95;1.85;;;20.40;99.90;;;;;;5039621;28;20215;-69
2023/09/16 08:08:03;;;;;;;2.90;2.05;;;20.50;99.90;;;;;;5044815;28;20913;-68
2023/09/16 08:10:31;;;;;;;2.05;1.80;;;20.70;99.90;;;;;;5055607;28;20208;-68
2023/09/16 08:12:59;;;;;;;2.15;1.77;;;20.90;99.90;;;;;;5048578;28;20208;-67
2023/09/16 08:15:28;;;;;;;2.05;1.83;;;20.90;99.90;;;;;;5048266;28;20204;-68
2023/09/16 08:17:56;;;;;;;1.77;1.60;;;21.00;99.90;;;;;;5045034;28;20323;-68
2023/09/16 08:20:24;;;;;;;2.33;2.13;;;21.00;99.90;;;;;;5036706;28;20203;-67
2023/09/16 08:22:52;;;;;;;2.05;1.85;;;21.00;99.90;;;;;;5038885;28;20216;-67
2023/09/16 08:25:20;;;;;;;2.28;2.08;;;21.00;99.90;;;;;;5036216;28;20219;-68
2023/09/16 08:27:48;;;;;;;2.10;1.85;;;21.30;99.90;;;;;;5033990;28;20228;-68
2023/09/16 08:30:16;;;;;;;1.98;1.55;;;21.40;99.90;;;;;;5042486;28;20199;-68
2023/09/16 08:32:46;;;;;;;2.17;1.98;;;21.60;99.90;;;;;;5036340;28;20205;-69
2023/09/16 08:35:14;;;;;;;1.75;1.65;;;21.80;99.90;;;;;;5041572;28;20279;-67
2023/09/16 08:37:42;;;;;;;2.17;2.08;;;21.80;99.90;;;;;;5032687;28;20286;-68
2023/09/16 08:40:10;;;;;;;2.47;2.13;;;21.90;99.90;;;;;;5046366;28;20219;-66
2023/09/16 08:42:42;;;;;;;1.60;1.50;;;22.00;99.90;;;;;;5046060;28;20836;-65
2023/09/16 08:45:15;;;;;;;2.03;1.70;;;22.20;99.90;;;;;;5033604;28;20219;-66
2023/09/16 08:47:55;;;;;;;2.42;2.22;;;22.50;99.90;;;;;;5032415;28;20225;-66
2023/09/16 08:50:23;;;;;;;1.98;1.85;;;22.70;99.90;;;;;;5032087;28;20283;-66
2023/09/16 08:52:53;;;;;;;2.30;2.10;;;22.90;99.90;;;;;;5033089;28;20228;-66
2023/09/16 08:55:22;;;;;;;1.58;1.48;;;23.00;99.90;;;;;;5033036;28;20205;-64
2023/09/16 08:57:55;;;;;;;2.42;1.85;;;23.30;99.90;;;;;;5032558;28;20602;-65
2023/09/16 09:00:24;;;;;;;1.77;1.65;;;23.40;99.90;;;;;;5032901;28;20303;-66
2023/09/16 09:02:54;;;;;;;2.15;1.95;;;23.70;99.90;;;;;;5032633;28;20203;-67
2023/09/16 09:05:24;;;;;;;3.15;2.40;;;23.60;99.90;;;;;;5032632;28;20205;-66
2023/09/16 09:07:55;;;;;;;1.92;1.40;;;23.80;99.90;;;;;;5032344;28;20298;-66
2023/09/16 09:10:23;;;;;;;2.00;1.83;;;23.90;99.90;;;;;;5063470;28;20198;-66
2023/09/16 09:12:51;;;;;;;2.53;1.70;;;24.10;99.90;;;;;;5058338;28;20196;-66
2023/09/16 09:15:20;;;;;;;3.85;2.28;;;24.20;99.90;;;;;;5037642;28;20230;-66
2023/09/16 09:17:51;;;;;;;3.00;2.20;;;24.10;99.90;;;;;;5032557;28;20216;-65
2023/09/16 09:20:23;;;;;;;1.70;1.60;;;24.30;99.90;;;;;;5032580;28;20682;-66
2023/09/16 09:22:52;;;;;;;1.73;1.48;;;24.50;99.90;;;;;;5032252;28;20208;-67
2023/09/16 09:25:22;;;;;;;2.28;1.90;;;24.60;99.90;;;;;;5032472;28;20670;-66
2023/09/16 09:27:51;;;;;;;1.90;1.80;;;24.90;99.90;;;;;;5031251;28;20224;-66
2023/09/16 09:30:24;;;;;;;2.42;2.00;;;25.30;99.90;;;;;;5033769;28;20617;-66
2023/09/16 09:32:52;;;;;;;3.90;2.47;;;25.70;99.90;;;;;;5032219;28;20211;-66
2023/09/16 09:35:23;;;;;;;2.40;2.20;;;25.90;99.90;;;;;;5032130;28;20200;-66
2023/09/16 09:37:51;;;;;;;3.05;2.85;;;26.30;99.90;;;;;;5032030;28;20725;-67
2023/09/16 09:40:22;;;;;;;2.80;2.50;;;26.30;99.90;;;;;;5061889;28;20222;-66
2023/09/16 09:42:51;;;;;;;2.08;1.88;;;26.40;99.90;;;;;;5055583;28;20204;-67
2023/09/16 09:45:20;;;;;;;2.92;2.63;;;26.60;99.90;;;;;;5031869;28;20196;-67
2023/09/16 09:47:50;;;;;;;2.33;2.13;;;26.90;99.90;;;;;;5032023;28;20225;-66
2023/09/16 09:50:19;;;;;;;2.40;1.85;;;27.10;99.90;;;;;;5031937;28;20220;-66
2023/09/16 09:52:50;;;;;;;2.30;2.10;;;27.50;99.90;;;;;;5031525;28;20269;-66
2023/09/16 09:55:18;;;;;;;5.20;4.10;;;27.60;99.90;;;;;;5032014;28;20215;-66
2023/09/16 09:57:48;;;;;;;11.70;7.70;;;27.90;99.90;;;;;;5031827;28;20252;-65
2023/09/16 10:00:17;;;;;;;4.78;4.15;;;27.90;99.90;;;;;;5031580;28;20217;-67
2023/09/16 10:02:47;;;;;;;3.63;2.63;;;28.10;99.90;;;;;;5031986;28;20201;-67
2023/09/16 10:05:17;;;;;;;3.05;2.63;;;28.10;99.90;;;;;;5031806;28;20205;-66
2023/09/16 10:07:45;;;;;;;3.00;2.80;;;28.20;99.90;;;;;;5058426;23;20227;-66
2023/09/16 10:10:19;;;;;;;2.55;2.35;;;28.10;99.90;;;;;;5047951;28;20208;-66
2023/09/16 10:12:48;;;;;;;4.63;3.40;;;27.80;99.90;;;;;;5051027;28;20208;-66
2023/09/16 10:15:16;;;;;;;2.80;2.58;;;27.90;99.90;;;;;;5034584;28;20211;-66
2023/09/16 10:17:46;;;;;;;2.35;1.95;;;28.10;99.90;;;;;;5031858;28;20234;-66
2023/09/16 10:20:16;;;;;;;2.92;2.60;;;28.30;99.90;;;;;;5019482;28;20231;-66
2023/09/16 10:22:45;;;;;;;3.30;2.20;;;28.60;99.90;;;;;;5011656;28;20205;-65
2023/09/16 10:25:15;;;;;;;2.58;2.38;;;28.80;99.90;;;;;;5011191;28;20212;-65
2023/09/16 10:27:51;;;;;;;3.25;2.53;;;29.00;99.90;;;;;;5011624;28;20231;-65
2023/09/16 10:30:20;;;;;;;2.28;2.08;;;28.90;99.90;;;;;;5011278;28;20205;-65
2023/09/16 10:32:49;;;;;;;3.25;2.90;;;28.90;99.90;;;;;;5011306;28;20213;-65
2023/09/16 10:35:17;;;;;;;2.50;2.30;;;29.00;99.90;;;;;;5011032;28;20216;-66
2023/09/16 10:37:47;;;;;;;3.00;2.40;;;29.20;99.90;;;;;;5014929;28;20237;-65
2023/09/16 10:40:18;;;;;;;2.20;2.00;;;29.10;99.90;;;;;;5027572;28;20587;-66
2023/09/16 10:42:47;;;;;;;2.25;1.90;;;28.90;99.90;;;;;;5030886;28;20213;-66
2023/09/16 10:45:17;;;;;;;2.28;2.08;;;29.00;99.90;;;;;;5011416;28;20224;-66
2023/09/16 10:47:47;;;;;;;3.70;2.25;;;29.30;99.90;;;;;;5011275;28;20320;-66
2023/09/16 10:50:15;;;;;;;2.75;2.55;;;29.60;99.90;;;;;;5011077;28;20240;-65
2023/09/16 10:52:48;;;;;;;2.83;2.50;;;29.60;99.50;;;;;;5023342;28;20219;-65
2023/09/16 10:55:23;;;;;;;2.20;2.00;;;29.50;99.90;;;;;;5013215;28;20234;-66
2023/09/16 10:57:58;;;;;;;2.30;2.10;;;29.50;99.80;;;;;;5011529;28;20605;-65
2023/09/16 11:00:28;;;;;;;2.00;1.90;;;29.60;99.90;;;;;;5011109;28;20248;-66
2023/09/16 11:02:59;;;;;;;2.58;2.35;;;29.80;99.90;;;;;;5011077;28;20619;-65
2023/09/16 11:05:27;;;;;;;3.05;2.63;;;30.00;99.70;;;;;;5023166;28;20208;-66
2023/09/16 11:07:56;;;;;;;3.45;2.15;;;30.00;99.30;;;;;;5014429;28;20253;-66
2023/09/16 11:10:25;;;;;;;2.40;2.20;;;30.30;99.20;;;;;;5029968;28;20678;-66
2023/09/16 11:12:53;;;;;;;2.13;1.88;;;30.80;99.20;;;;;;5030545;28;20266;-66
2023/09/16 11:15:21;;;;;;;3.20;2.90;;;31.00;98.20;;;;;;5010684;28;20257;-66
2023/09/16 11:17:50;;;;;;;2.42;2.08;;;31.00;97.90;;;;;;5010963;28;20308;-66
2023/09/16 11:20:24;;;;;;;2.25;2.15;;;30.80;97.70;;;;;;5010618;28;20221;-65
2023/09/16 11:22:52;;;;;;;2.72;2.03;;;31.00;98.20;;;;;;5019149;28;20296;-65
2023/09/16 11:25:20;;;;;;;3.17;2.67;;;31.30;98.20;;;;;;5010448;28;20217;-66
2023/09/16 11:27:51;;;;;;;3.30;3.00;;;31.30;97.80;;;;;;5012463;28;20279;-66
2023/09/16 11:30:19;;;;;;;2.40;2.20;;;31.40;97.50;;;;;;5010729;28;20201;-66
2023/09/16 11:33:09;;;;;;;3.20;2.90;;;31.40;97.20;;;;;;5010958;28;21132;-66
2023/09/16 11:35:38;;;;;;;2.50;2.30;;;31.50;97.00;;;;;;5010717;28;20202;-66
2023/09/16 11:38:06;;;;;;;2.13;2.03;;;31.20;97.00;;;;;;5010674;28;21257;-66
2023/09/16 11:40:34;;;;;;;2.10;2.00;;;31.30;96.60;;;;;;5029609;28;20303;-66
2023/09/16 11:43:04;;;;;;;2.35;2.15;;;31.50;96.60;;;;;;5029622;28;21176;-66
2023/09/16 11:45:34;;;;;;;2.30;2.10;;;31.80;96.10;;;;;;5017541;28;20215;-66
2023/09/16 11:48:03;;;;;;;2.07;1.97;;;31.90;96.10;;;;;;5010598;28;20648;-66
2023/09/16 11:50:31;;;;;;;2.10;1.90;;;31.90;96.10;;;;;;5012587;28;21040;-67
2023/09/16 11:52:59;;;;;;;2.70;2.33;;;31.70;95.80;;;;;;5021528;28;20627;-66
2023/09/16 11:55:28;;;;;;;2.47;2.27;;;31.80;96.40;;;;;;5029510;28;20267;-66
2023/09/16 11:57:56;;;;;;;2.23;2.10;;;31.80;95.90;;;;;;5014131;28;20656;-66
2023/09/16 12:00:26;;;;;;;1.90;1.80;;;32.10;95.20;;;;;;5014004;28;20659;-66
2023/09/16 12:02:54;;;;;;;2.23;2.13;;;32.50;94.50;;;;;;5014357;28;20622;-66
2023/09/16 12:05:23;;;;;;;2.50;2.30;;;32.60;94.60;;;;;;5013582;28;20682;-65
2023/09/16 12:07:52;;;;;;;2.63;2.13;;;32.80;94.50;;;;;;5025607;28;20733;-66
2023/09/16 12:10:21;;;;;;;2.33;2.13;;;32.80;94.50;;;;;;5032102;28;20627;-66
2023/09/16 12:12:51;;;;;;;1.90;1.60;;;32.90;94.50;;;;;;5033659;28;21070;-65
2023/09/16 12:15:19;;;;;;;2.13;1.93;;;33.30;93.90;;;;;;5014900;28;20638;-66
2023/09/16 12:17:49;;;;;;;1.93;1.83;;;33.30;93.10;;;;;;5013950;28;20647;-65
2023/09/16 12:20:17;;;;;;;2.27;2.07;;;33.40;93.30;;;;;;5013638;28;21243;-66
2023/09/16 12:22:47;;;;;;;2.10;2.00;;;33.70;93.20;;;;;;5013718;28;20624;-64
2023/09/16 12:25:16;;;;;;;2.40;2.20;;;33.70;92.90;;;;;;5017067;28;20624;-66
2023/09/16 12:27:44;;;;;;;2.63;2.43;;;33.70;93.10;;;;;;5029769;28;20665;-66
2023/09/16 12:30:13;;;;;;;1.90;1.80;;;33.60;92.90;;;;;;5038225;28;20623;-65
2023/09/16 12:32:51;;;;;;;1.93;1.63;;;33.30;93.10;;;;;;5029873;28;20625;-67
2023/09/16 12:35:19;;;;;;;2.10;2.00;;;33.10;93.00;;;;;;5024425;28;20625;-66
2023/09/16 12:37:48;;;;;;;1.80;1.63;;;33.10;93.10;;;;;;5031612;28;20757;-65
2023/09/16 12:40:17;;;;;;;1.90;1.80;;;33.20;92.70;;;;;;5028850;28;20628;-66
2023/09/16 12:42:45;;;;;;;2.20;2.10;;;33.30;92.80;;;;;;5028488;28;20635;-66
2023/09/16 12:45:13;;;;;;;2.33;1.90;;;33.90;91.90;;;;;;5027833;28;20647;-66
2023/09/16 12:47:41;;;;;;;1.83;1.60;;;33.90;91.20;;;;;;5022539;28;20655;-66
2023/09/16 12:50:10;;;;;;;2.10;1.60;;;33.90;91.20;;;;;;5029792;28;20622;-65
2023/09/16 12:52:38;;;;;;;2.13;1.93;;;33.60;90.80;;;;;;5023718;28;20634;-66
2023/09/16 12:55:11;;;;;;;2.07;1.87;;;33.40;92.00;;;;;;5025667;28;20634;-66
2023/09/16 12:57:40;;;;;;;1.77;1.67;;;33.40;91.30;;;;;;5024266;28;20729;-66